Time;durP1;ratioP1;P1;durP2;ratioP2;P2;SDS_P1;SDS_P2;PMS_P1;PMS_P2;Temp;Humidity;BMP_temperature;BMP_pressure;BME280_temperature;BME280_humidity;BME280_pressure;Samples;Min_cycle;Max_cycle;Signal;HPM_P1;HPM_P2
2022/05/16 00:01:19;;;;;;;9.00;5.30;;;15.90;99.90;;;;;;5080746;28;20094;-65
2022/05/16 00:03:45;;;;;;;7.15;5.43;;;15.90;99.90;;;;;;5081534;28;20078;-64
2022/05/16 00:06:12;;;;;;;8.23;5.38;;;15.80;99.90;;;;;;5087901;28;20048;-64
2022/05/16 00:08:39;;;;;;;7.22;5.93;;;15.70;99.90;;;;;;5072810;28;20102;-64
2022/05/16 00:11:05;;;;;;;10.70;5.25;;;15.50;99.90;;;;;;5085752;28;20044;-64
2022/05/16 00:13:32;;;;;;;6.53;4.82;;;15.50;99.90;;;;;;5081531;28;20043;-64
2022/05/16 00:16:00;;;;;;;8.32;6.10;;;15.40;99.90;;;;;;5075113;28;20040;-64
2022/05/16 00:18:27;;;;;;;10.73;5.57;;;15.30;99.90;;;;;;5086208;28;20051;-64
2022/05/16 00:20:53;;;;;;;7.93;5.80;;;15.20;99.90;;;;;;5085817;28;20082;-64
2022/05/16 00:23:20;;;;;;;10.48;5.60;;;15.20;99.90;;;;;;5062284;28;20040;-64
2022/05/16 00:25:47;;;;;;;7.05;5.38;;;15.20;99.90;;;;;;5070632;28;20045;-64
2022/05/16 00:28:14;;;;;;;10.20;5.88;;;15.10;99.90;;;;;;5070691;28;20044;-64
2022/05/16 00:30:40;;;;;;;7.63;6.30;;;15.10;99.90;;;;;;5071057;28;20049;-64
2022/05/16 00:33:07;;;;;;;7.07;5.57;;;15.10;99.90;;;;;;5063468;28;20578;-64
2022/05/16 00:35:34;;;;;;;8.82;4.90;;;15.10;99.90;;;;;;5073011;28;20051;-64
2022/05/16 00:38:01;;;;;;;7.15;5.40;;;15.10;99.90;;;;;;5061449;28;20435;-64
2022/05/16 00:40:27;;;;;;;8.00;5.05;;;15.20;99.90;;;;;;5047868;28;20102;-64
2022/05/16 00:43:06;;;;;;;10.52;5.40;;;15.20;99.90;;;;;;5074229;28;20045;-65
2022/05/16 00:45:33;;;;;;;9.38;5.25;;;15.20;99.90;;;;;;5074626;28;20060;-64
2022/05/16 00:48:02;;;;;;;14.18;5.57;;;15.20;99.90;;;;;;5065877;28;20051;-64
2022/05/16 00:50:30;;;;;;;7.72;5.63;;;15.10;99.90;;;;;;5073659;28;20049;-64
2022/05/16 00:52:57;;;;;;;7.40;6.05;;;15.10;99.90;;;;;;5079215;22;20056;-70
2022/05/16 00:55:31;;;;;;;6.80;5.70;;;15.10;99.90;;;;;;5018952;28;20045;-70
2022/05/16 00:58:07;;;;;;;8.13;5.07;;;15.10;99.90;;;;;;5019698;28;20051;-71
2022/05/16 01:00:36;;;;;;;8.48;5.07;;;15.10;99.90;;;;;;5062289;28;20094;-70
2022/05/16 01:05:57;;;;;;;9.02;5.47;;;15.10;99.90;;;;;;5073373;28;20056;-70
2022/05/16 01:08:26;;;;;;;14.57;6.20;;;15.00;99.90;;;;;;5073224;28;20044;-71
2022/05/16 01:10:56;;;;;;;6.80;5.05;;;15.00;99.90;;;;;;5064818;28;20040;-71
2022/05/16 01:13:25;;;;;;;10.43;6.03;;;15.00;99.90;;;;;;5073600;28;20055;-70
2022/05/16 01:15:52;;;;;;;8.65;5.72;;;15.00;99.90;;;;;;5073406;28;20094;-71
2022/05/16 01:18:23;;;;;;;9.68;5.57;;;15.00;99.90;;;;;;5066114;28;20033;-70
2022/05/16 01:21:20;;;;;;;12.43;6.85;;;14.90;99.90;;;;;;5071801;28;20040;-71
2022/05/16 01:23:49;;;;;;;8.40;5.78;;;14.70;99.90;;;;;;5073465;28;20055;-70
2022/05/16 01:26:24;;;;;;;7.93;6.22;;;14.60;99.90;;;;;;5072752;28;20048;-70
2022/05/16 01:28:52;;;;;;;10.57;6.93;;;14.50;99.90;;;;;;5064856;28;20111;-70
2022/05/16 01:31:20;;;;;;;10.23;6.65;;;14.40;99.90;;;;;;5073029;28;20048;-70
2022/05/16 01:33:47;;;;;;;8.20;6.25;;;14.40;99.90;;;;;;5055528;28;20725;-70
2022/05/16 01:36:14;;;;;;;14.02;6.32;;;14.40;99.90;;;;;;5067901;28;20045;-71
2022/05/16 01:38:40;;;;;;;8.18;5.82;;;14.40;99.90;;;;;;5062469;28;20036;-71
2022/05/16 01:41:11;;;;;;;6.50;5.80;;;14.30;99.90;;;;;;5072463;28;20040;-70
2022/05/16 01:43:41;;;;;;;12.63;6.00;;;14.30;99.90;;;;;;5073131;28;20567;-70
2022/05/16 01:46:09;;;;;;;9.27;6.10;;;14.40;99.90;;;;;;5069546;28;20086;-70
2022/05/16 01:48:37;;;;;;;9.25;5.80;;;14.40;99.90;;;;;;5064346;28;20056;-71
2022/05/16 01:51:07;;;;;;;8.80;5.65;;;14.50;99.90;;;;;;5072228;28;20628;-71
2022/05/16 01:53:35;;;;;;;14.07;6.28;;;14.50;99.90;;;;;;5071826;28;20044;-70
2022/05/16 01:56:02;;;;;;;;;;;14.40;99.90;;;;;;5071629;28;20040;-71
2022/05/16 01:58:28;;;;;;;12.25;5.38;;;14.40;99.90;;;;;;5063385;28;19974;-70
2022/05/16 02:00:56;;;;;;;7.60;5.70;;;14.40;99.90;;;;;;5071436;28;20438;-70
2022/05/16 02:03:23;;;;;;;14.10;5.13;;;14.40;99.90;;;;;;5071001;28;20063;-70
2022/05/16 02:05:50;;;;;;;11.90;5.80;;;14.50;99.90;;;;;;5063008;28;20044;-70
2022/05/16 02:08:17;;;;;;;8.60;5.72;;;14.50;99.90;;;;;;5071537;28;20575;-71
2022/05/16 02:10:46;;;;;;;;;;;14.50;99.90;;;;;;5071767;28;20049;-71
2022/05/16 02:13:13;;;;;;;12.38;5.95;;;14.50;99.90;;;;;;5070889;28;19950;-70
2022/05/16 02:15:42;;;;;;;9.90;5.68;;;14.50;99.90;;;;;;5062995;28;20114;-70
2022/05/16 02:18:09;;;;;;;10.13;5.57;;;14.50;99.90;;;;;;5071527;28;20487;-71
2022/05/16 02:20:37;;;;;;;7.68;5.38;;;14.60;99.90;;;;;;5052375;28;20047;-71
2022/05/16 02:25:52;;;;;;;7.88;6.28;;;14.70;99.90;;;;;;5071475;28;20051;-70
2022/05/16 02:28:19;;;;;;;7.72;5.72;;;14.80;99.90;;;;;;5069666;28;20044;-70
2022/05/16 02:30:51;;;;;;;8.75;5.22;;;14.80;99.90;;;;;;5061495;28;20051;-71
2022/05/16 02:33:19;;;;;;;7.57;5.78;;;14.80;99.90;;;;;;5070803;28;20048;-70
2022/05/16 02:35:46;;;;;;;10.45;6.00;;;14.80;99.90;;;;;;5070997;28;20052;-70
2022/05/16 02:38:15;;;;;;;10.02;5.45;;;14.80;99.90;;;;;;5064953;28;20116;-71
2022/05/16 02:40:42;;;;;;;6.28;5.35;;;14.80;99.90;;;;;;5068667;28;20098;-70
2022/05/16 02:43:09;;;;;;;13.65;6.63;;;14.60;99.90;;;;;;5071076;28;20048;-71
2022/05/16 02:45:36;;;;;;;10.02;6.13;;;14.50;99.90;;;;;;5070197;28;20040;-70
2022/05/16 02:48:03;;;;;;;8.18;6.05;;;14.30;99.90;;;;;;5062323;28;20446;-71
2022/05/16 02:50:30;;;;;;;10.50;5.95;;;14.20;99.90;;;;;;5070678;28;20090;-70
2022/05/16 02:52:57;;;;;;;10.48;6.53;;;14.10;99.90;;;;;;5037096;28;20197;-71
2022/05/16 02:55:24;;;;;;;9.00;6.57;;;14.20;99.90;;;;;;5071111;28;20113;-70
2022/05/16 02:57:51;;;;;;;;;;;14.20;99.90;;;;;;5063145;28;20040;-70
2022/05/16 03:00:18;;;;;;;10.80;6.40;;;14.30;99.90;;;;;;5071261;28;19927;-71
2022/05/16 03:02:45;;;;;;;12.43;7.45;;;14.40;99.90;;;;;;5071161;28;20051;-70
2022/05/16 03:05:13;;;;;;;11.30;7.20;;;14.50;99.90;;;;;;5066164;28;20133;-70
2022/05/16 03:07:40;;;;;;;12.25;6.80;;;14.50;99.90;;;;;;5051687;28;20036;-70
2022/05/16 03:10:09;;;;;;;9.30;6.78;;;14.60;99.90;;;;;;5071088;28;20404;-70
2022/05/16 03:12:35;;;;;;;9.07;6.03;;;14.60;99.90;;;;;;5071043;28;20044;-71
2022/05/16 03:15:03;;;;;;;15.02;6.80;;;14.70;99.90;;;;;;5062950;28;20501;-71
2022/05/16 03:17:29;;;;;;;;;;;14.60;99.90;;;;;;5072075;28;20120;-70
2022/05/16 03:19:56;;;;;;;11.40;6.63;;;14.50;99.90;;;;;;5070488;28;19920;-71
2022/05/16 03:22:29;;;;;;;12.30;6.60;;;14.30;99.90;;;;;;5063421;28;20041;-70
2022/05/16 03:24:56;;;;;;;11.57;7.22;;;14.20;99.90;;;;;;5071326;28;20052;-70
2022/05/16 03:27:23;;;;;;;10.40;6.78;;;14.10;99.90;;;;;;5071401;28;20037;-71
2022/05/16 03:29:50;;;;;;;10.70;7.22;;;14.20;99.90;;;;;;5052944;28;20048;-70
2022/05/16 03:32:17;;;;;;;20.30;8.50;;;14.10;99.90;;;;;;5062964;28;20112;-70
2022/05/16 03:34:44;;;;;;;9.52;7.18;;;14.10;99.90;;;;;;5071264;28;20044;-71
2022/05/16 03:37:11;;;;;;;11.90;7.50;;;14.10;99.90;;;;;;5071310;28;20045;-70
2022/05/16 03:42:23;;;;;;;14.35;7.68;;;14.10;99.90;;;;;;5071344;28;20485;-70
2022/05/16 03:44:50;;;;;;;10.25;7.82;;;14.10;99.90;;;;;;5071112;28;20666;-71
2022/05/16 03:47:17;;;;;;;12.40;8.10;;;14.10;99.90;;;;;;5070688;28;20078;-70
2022/05/16 03:49:44;;;;;;;16.88;8.05;;;14.10;99.90;;;;;;5062844;28;20441;-70
2022/05/16 03:52:10;;;;;;;13.52;8.25;;;14.20;99.90;;;;;;5070799;28;20044;-71
2022/05/16 03:54:42;;;;;;;12.40;7.80;;;14.20;99.90;;;;;;5071077;28;20052;-70
2022/05/16 03:57:08;;;;;;;;;;;14.30;99.90;;;;;;5066018;28;20045;-70
2022/05/16 03:59:35;;;;;;;13.30;7.55;;;14.20;99.90;;;;;;5068045;28;19945;-70
2022/05/16 04:02:02;;;;;;;10.40;7.78;;;14.30;99.90;;;;;;5070569;28;20063;-70
2022/05/16 04:04:29;;;;;;;12.30;7.00;;;14.40;99.90;;;;;;5070715;28;20521;-70
2022/05/16 04:06:56;;;;;;;11.60;7.03;;;14.50;99.90;;;;;;5062499;28;20079;-70
2022/05/16 04:09:23;;;;;;;11.02;7.00;;;14.50;99.90;;;;;;5073583;28;20496;-70
2022/05/16 04:11:50;;;;;;;15.68;7.32;;;14.50;99.90;;;;;;5074499;28;20064;-70
2022/05/16 04:14:17;;;;;;;10.65;6.90;;;14.40;99.90;;;;;;5068306;28;20049;-71
2022/05/16 04:16:43;;;;;;;13.02;6.35;;;14.40;99.90;;;;;;5072179;28;20561;-70
2022/05/16 04:19:10;;;;;;;11.68;6.57;;;14.50;99.90;;;;;;5063796;28;20089;-70
2022/05/16 04:21:38;;;;;;;11.65;7.20;;;14.50;99.90;;;;;;5064778;28;20048;-70
2022/05/16 04:24:06;;;;;;;10.07;6.63;;;14.50;99.90;;;;;;5052570;28;20055;-70
2022/05/16 04:26:34;;;;;;;8.90;6.22;;;14.60;99.90;;;;;;5071702;28;20048;-70
2022/05/16 04:29:02;;;;;;;11.65;6.45;;;14.70;99.90;;;;;;5063411;28;20067;-70
2022/05/16 04:31:29;;;;;;;10.68;6.40;;;14.80;99.90;;;;;;5073223;28;20094;-70
2022/05/16 04:33:55;;;;;;;14.50;6.80;;;14.70;99.90;;;;;;5066088;28;20066;-71
2022/05/16 04:36:22;;;;;;;11.68;7.28;;;14.70;99.90;;;;;;5074361;28;20040;-71
2022/05/16 04:38:49;;;;;;;10.38;6.28;;;14.70;99.90;;;;;;5074338;28;20094;-71
2022/05/16 04:44:15;;;;;;;8.63;6.20;;;14.70;99.90;;;;;;5045199;28;20488;-70
2022/05/16 04:46:42;;;;;;;9.40;6.93;;;14.70;99.90;;;;;;5074193;28;20044;-70
2022/05/16 04:49:09;;;;;;;12.48;7.38;;;14.90;99.90;;;;;;5074333;28;20052;-70
2022/05/16 04:51:36;;;;;;;12.32;6.97;;;14.90;99.90;;;;;;5044082;28;20044;-70
2022/05/16 04:54:03;;;;;;;11.13;6.78;;;15.00;99.90;;;;;;5074247;28;20098;-71
2022/05/16 04:56:30;;;;;;;8.80;6.95;;;15.10;99.90;;;;;;5073908;28;20032;-70
2022/05/16 04:58:57;;;;;;;9.70;6.55;;;15.20;99.90;;;;;;5073414;28;20036;-70
2022/05/16 05:01:24;;;;;;;8.32;6.03;;;15.40;99.90;;;;;;5066330;28;20052;-71
2022/05/16 05:03:51;;;;;;;11.23;6.00;;;15.50;99.90;;;;;;5073198;28;20558;-71
2022/05/16 05:06:18;;;;;;;10.15;6.55;;;15.60;99.90;;;;;;5073889;28;20049;-70
2022/05/16 05:08:45;;;;;;;11.73;7.15;;;15.70;99.90;;;;;;5071437;28;20071;-70
2022/05/16 05:16:42;;;;;;;11.23;6.25;;;15.80;99.90;;;;;;5070259;28;20396;-70
2022/05/16 05:19:09;;;;;;;8.38;6.22;;;15.90;99.90;;;;;;5071045;28;20031;-71
2022/05/16 05:21:36;;;;;;;12.77;7.30;;;15.90;99.90;;;;;;5072000;28;20044;-70
2022/05/16 05:24:03;;;;;;;16.33;7.22;;;15.80;99.90;;;;;;5070380;28;20045;-71
2022/05/16 05:26:29;;;;;;;12.45;6.97;;;15.90;99.90;;;;;;5065180;28;20103;-70
2022/05/16 05:28:56;;;;;;;11.90;7.88;;;15.80;99.90;;;;;;5073286;28;20044;-70
2022/05/16 05:31:25;;;;;;;14.20;7.53;;;15.80;99.90;;;;;;5073070;28;20400;-70
2022/05/16 05:33:56;;;;;;;13.50;7.32;;;15.90;99.90;;;;;;5070062;28;20068;-70
2022/05/16 05:36:25;;;;;;;13.90;7.80;;;15.90;99.90;;;;;;5053038;28;20056;-70
2022/05/16 05:38:52;;;;;;;18.45;7.65;;;16.00;99.90;;;;;;5051878;28;20048;-71
2022/05/16 05:41:21;;;;;;;14.50;8.32;;;16.10;99.90;;;;;;5052126;28;20049;-70
2022/05/16 05:43:48;;;;;;;12.05;7.72;;;16.30;99.90;;;;;;5061793;28;20431;-70
2022/05/16 05:46:16;;;;;;;11.93;7.57;;;16.40;99.90;;;;;;5067357;28;20048;-70
2022/05/16 05:48:43;;;;;;;11.52;7.88;;;16.50;99.90;;;;;;5073179;28;20040;-71
2022/05/16 05:51:11;;;;;;;;;;;16.50;99.90;;;;;;5038507;28;20519;-70
2022/05/16 05:53:38;;;;;;;10.75;7.55;;;16.70;99.90;;;;;;5071492;28;19994;-71
2022/05/16 05:56:05;;;;;;;10.55;7.68;;;16.70;99.90;;;;;;5065733;28;20488;-71
2022/05/16 05:58:33;;;;;;;10.10;7.60;;;16.70;99.90;;;;;;5072944;28;20074;-70
2022/05/16 06:01:01;;;;;;;13.48;7.63;;;16.80;99.90;;;;;;5071765;28;20033;-70
2022/05/16 06:03:28;;;;;;;11.52;7.97;;;16.90;99.90;;;;;;5064500;28;20045;-71
2022/05/16 06:05:55;;;;;;;10.90;7.95;;;17.00;99.90;;;;;;5072652;28;20045;-71
2022/05/16 06:08:22;;;;;;;10.10;7.47;;;17.10;99.90;;;;;;5072806;28;20043;-70
2022/05/16 06:10:49;;;;;;;15.32;7.40;;;17.10;99.90;;;;;;5069438;28;20049;-71
2022/05/16 06:13:17;;;;;;;;;;;17.20;99.90;;;;;;5067074;28;20075;-71
2022/05/16 06:15:43;;;;;;;9.77;8.10;;;17.30;99.90;;;;;;5072517;28;19920;-71
2022/05/16 06:18:10;;;;;;;14.85;7.80;;;17.40;99.90;;;;;;5072026;28;20101;-71
2022/05/16 06:20:38;;;;;;;10.88;7.40;;;17.40;99.90;;;;;;5063787;28;20452;-71
2022/05/16 06:23:05;;;;;;;11.07;7.90;;;17.50;99.90;;;;;;5072403;28;20044;-71
2022/05/16 06:25:32;;;;;;;;;;;17.50;99.90;;;;;;5072769;28;20047;-71
2022/05/16 06:28:05;;;;;;;10.43;7.20;;;17.60;99.90;;;;;;5068045;28;19925;-71
2022/05/16 06:30:35;;;;;;;12.57;7.63;;;17.60;99.90;;;;;;5068047;28;20047;-71
2022/05/16 06:33:02;;;;;;;11.80;7.68;;;17.60;99.90;;;;;;5072376;28;20068;-71
2022/05/16 06:35:29;;;;;;;14.13;7.30;;;17.70;99.90;;;;;;5071212;28;20040;-71
2022/05/16 06:37:55;;;;;;;15.65;8.43;;;17.60;99.90;;;;;;5071667;28;20040;-71
2022/05/16 06:40:23;;;;;;;13.48;8.57;;;17.70;99.90;;;;;;5071390;28;20128;-71
2022/05/16 06:42:50;;;;;;;12.95;7.72;;;17.70;99.90;;;;;;5068427;28;20106;-71
2022/05/16 06:45:17;;;;;;;13.70;8.45;;;17.80;99.90;;;;;;5070330;28;20041;-71
2022/05/16 06:47:44;;;;;;;12.70;8.18;;;17.80;99.90;;;;;;5071947;28;20051;-70
2022/05/16 06:50:11;;;;;;;15.25;8.70;;;17.80;99.90;;;;;;5071117;28;20044;-71
2022/05/16 06:53:22;;;;;;;12.32;8.23;;;17.90;99.90;;;;;;5075494;22;20049;-64
2022/05/16 06:55:49;;;;;;;14.25;8.05;;;18.10;99.90;;;;;;5053114;28;20075;-66
2022/05/16 06:58:16;;;;;;;12.65;7.72;;;18.40;99.90;;;;;;5071552;28;20040;-66
2022/05/16 07:00:42;;;;;;;;;;;18.80;99.90;;;;;;5071131;28;20036;-66
2022/05/16 07:03:10;;;;;;;10.30;8.35;;;19.00;99.90;;;;;;5061303;28;19974;-66
2022/05/16 07:05:47;;;;;;;16.77;8.45;;;19.10;99.90;;;;;;5056055;28;20060;-65
2022/05/16 07:08:15;;;;;;;11.30;7.65;;;19.20;99.90;;;;;;5070953;28;20059;-66
2022/05/16 07:10:43;;;;;;;10.13;7.28;;;19.30;99.90;;;;;;5063208;28;20048;-66
2022/05/16 07:13:10;;;;;;;9.77;7.68;;;19.60;99.90;;;;;;5062970;28;20056;-66
2022/05/16 07:15:37;;;;;;;;;;;19.70;99.90;;;;;;5071883;28;20484;-66
2022/05/16 07:18:03;;;;;;;13.45;7.85;;;19.80;99.90;;;;;;5066658;28;19967;-65
2022/05/16 07:20:38;;;;;;;10.27;7.65;;;19.70;99.90;;;;;;5067248;28;20066;-66
2022/05/16 07:23:05;;;;;;;13.10;7.65;;;19.70;99.90;;;;;;5050962;28;20481;-66
2022/05/16 07:27:56;;;;;;;14.85;7.85;;;19.80;99.90;;;;;;5051212;28;20047;-66
2022/05/16 07:28:20;;;;;;;12.38;7.72;;;19.80;99.90;;;;;;5066409;28;20098;-66
2022/05/16 07:30:49;;;;;;;13.40;8.07;;;19.90;99.90;;;;;;5052165;28;20045;-66
2022/05/16 07:33:16;;;;;;;9.50;7.30;;;20.00;99.90;;;;;;5050791;28;20045;-66
2022/05/16 07:35:42;;;;;;;13.88;7.63;;;20.10;99.90;;;;;;5061231;28;20493;-66
2022/05/16 07:38:09;;;;;;;9.05;6.75;;;20.30;99.90;;;;;;5057404;28;20045;-66
2022/05/16 07:40:37;;;;;;;11.18;7.70;;;20.40;99.90;;;;;;5050715;28;20041;-66
2022/05/16 07:43:07;;;;;;;13.40;8.05;;;20.60;99.90;;;;;;5053157;28;20044;-66
2022/05/16 07:45:33;;;;;;;9.85;7.10;;;20.80;99.90;;;;;;5073781;28;20497;-66
2022/05/16 07:48:03;;;;;;;12.43;7.97;;;20.90;99.90;;;;;;5057701;28;20132;-66
2022/05/16 07:50:31;;;;;;;9.93;7.60;;;21.10;99.90;;;;;;5057104;28;20140;-66
2022/05/16 07:52:59;;;;;;;9.50;7.47;;;21.20;99.90;;;;;;5069268;28;20047;-65
2022/05/16 07:55:26;;;;;;;12.18;7.30;;;21.40;99.90;;;;;;5070075;28;20107;-65
2022/05/16 07:57:53;;;;;;;7.95;6.80;;;21.70;99.90;;;;;;5063554;28;20390;-65
2022/05/16 08:00:23;;;;;;;10.27;7.20;;;21.70;99.90;;;;;;5057188;28;20040;-65
2022/05/16 08:02:51;;;;;;;11.75;7.13;;;21.50;99.90;;;;;;5068431;28;20036;-64
2022/05/16 08:05:20;;;;;;;12.18;7.13;;;21.30;99.90;;;;;;5062920;28;20122;-66
2022/05/16 08:10:36;;;;;;;9.75;7.00;;;21.30;99.90;;;;;;5039728;28;20048;-66
2022/05/16 08:13:09;;;;;;;11.75;7.40;;;21.30;99.90;;;;;;5055232;28;20106;-65
2022/05/16 08:15:38;;;;;;;13.48;7.15;;;21.40;99.90;;;;;;5057646;28;20456;-66
2022/05/16 08:18:06;;;;;;;8.50;7.05;;;21.40;99.90;;;;;;5066530;28;20048;-66
2022/05/16 08:20:33;;;;;;;;;;;21.50;99.90;;;;;;5068298;28;20550;-65
2022/05/16 08:23:00;;;;;;;13.98;6.65;;;21.40;99.90;;;;;;5065448;28;19974;-65
2022/05/16 08:25:27;;;;;;;12.32;6.25;;;21.60;99.90;;;;;;5057416;28;20049;-65
2022/05/16 08:27:53;;;;;;;9.73;6.93;;;21.70;99.90;;;;;;5057361;28;20087;-65
2022/05/16 08:30:21;;;;;;;13.13;6.97;;;21.90;99.90;;;;;;5067378;28;20036;-65
2022/05/16 08:32:49;;;;;;;10.25;6.35;;;22.10;99.90;;;;;;5057401;28;20044;-66
2022/05/16 08:35:18;;;;;;;9.90;7.00;;;22.20;99.90;;;;;;5057365;28;20048;-65
2022/05/16 08:41:17;;;;;;;12.60;6.35;;;22.50;99.90;;;;;;5068377;28;20044;-65
2022/05/16 08:44:11;;;;;;;9.85;6.40;;;22.60;99.90;;;;;;4995677;28;20144;-65
2022/05/16 08:46:46;;;;;;;8.85;6.60;;;22.80;99.90;;;;;;5065349;28;20049;-66
2022/05/16 08:49:56;;;;;;;7.10;6.18;;;23.00;99.90;;;;;;5063299;28;20063;-65
2022/05/16 08:52:41;;;;;;;9.65;6.63;;;23.10;99.90;;;;;;5047426;28;20409;-65
2022/05/16 08:55:24;;;;;;;9.20;6.22;;;23.20;99.90;;;;;;5062592;28;20051;-65
2022/05/16 08:58:00;;;;;;;11.50;6.63;;;23.50;99.90;;;;;;5073211;28;20090;-66
2022/05/16 09:00:36;;;;;;;9.75;7.18;;;23.60;99.90;;;;;;5073603;28;20447;-65
2022/05/16 09:03:06;;;;;;;10.30;6.63;;;23.50;99.90;;;;;;5065800;28;20462;-65
2022/05/16 09:05:43;;;;;;;9.65;6.78;;;23.60;99.90;;;;;;5060596;28;20090;-66
2022/05/16 09:08:16;;;;;;;10.97;6.60;;;23.50;99.90;;;;;;5062511;28;20401;-66
2022/05/16 09:10:46;;;;;;;8.93;6.68;;;23.80;99.90;;;;;;5062722;28;20048;-66
2022/05/16 09:13:42;;;;;;;8.20;6.35;;;24.10;99.90;;;;;;5062514;28;20044;-66
2022/05/16 09:16:27;;;;;;;11.77;6.85;;;24.40;99.90;;;;;;5053923;28;20120;-65
2022/05/16 09:19:12;;;;;;;10.13;6.72;;;24.50;99.90;;;;;;5053966;28;20045;-65
2022/05/16 09:21:49;;;;;;;7.18;6.43;;;24.40;99.90;;;;;;5036456;28;20076;-65
2022/05/16 09:24:26;;;;;;;10.80;6.72;;;24.50;99.90;;;;;;5059579;28;20045;-65
2022/05/16 09:27:04;;;;;;;9.35;6.28;;;24.60;99.90;;;;;;5053703;28;20048;-65
2022/05/16 09:29:42;;;;;;;11.07;5.57;;;24.50;99.90;;;;;;5053586;28;20041;-65
2022/05/16 09:32:13;;;;;;;8.25;5.15;;;24.20;99.90;;;;;;5067441;28;20049;-65
2022/05/16 09:34:41;;;;;;;10.32;5.28;;;23.60;99.90;;;;;;5071040;28;20655;-65
2022/05/16 09:37:07;;;;;;;7.65;5.07;;;23.30;99.90;;;;;;5073005;28;20051;-65
2022/05/16 09:39:35;;;;;;;6.13;5.38;;;23.00;99.90;;;;;;5064658;28;20364;-65
2022/05/16 09:42:03;;;;;;;13.68;6.10;;;22.80;99.90;;;;;;5068496;28;20041;-65
2022/05/16 09:44:44;;;;;;;9.55;5.00;;;22.50;99.90;;;;;;5052904;28;20148;-65
2022/05/16 09:47:36;;;;;;;10.38;4.70;;;22.40;99.90;;;;;;5053143;28;20049;-65
2022/05/16 09:50:05;;;;;;;7.75;4.25;;;22.40;99.90;;;;;;5065598;28;20040;-65
2022/05/16 09:52:37;;;;;;;8.27;3.78;;;22.80;99.90;;;;;;5055946;28;20052;-65
2022/05/16 09:55:09;;;;;;;4.82;3.70;;;22.90;99.90;;;;;;5053121;28;20517;-65
2022/05/16 09:58:22;;;;;;;7.72;3.58;;;23.00;99.90;;;;;;5063555;28;20876;-65
2022/05/16 10:01:01;;;;;;;4.95;3.38;;;23.00;99.90;;;;;;5054171;28;20053;-65
2022/05/16 10:03:43;;;;;;;8.48;3.42;;;22.80;99.90;;;;;;5063017;28;20064;-65
2022/05/16 10:06:35;;;;;;;6.05;3.88;;;23.10;99.90;;;;;;5069127;28;20095;-65
2022/05/16 10:09:11;;;;;;;4.05;3.40;;;23.20;99.90;;;;;;5067549;28;20451;-65
2022/05/16 10:11:38;;;;;;;5.38;3.20;;;23.20;99.90;;;;;;5064778;28;20105;-65
2022/05/16 10:14:09;;;;;;;6.53;3.83;;;23.20;99.90;;;;;;5067734;28;20075;-65
2022/05/16 10:16:39;;;;;;;3.75;3.30;;;23.20;99.90;;;;;;5071892;28;20040;-65
2022/05/16 10:19:10;;;;;;;5.35;3.75;;;23.10;99.90;;;;;;5068886;28;20102;-65
2022/05/16 10:21:48;;;;;;;6.50;3.75;;;23.10;99.90;;;;;;5069849;28;20041;-65
2022/05/16 10:24:16;;;;;;;9.23;3.63;;;22.90;99.90;;;;;;5065360;28;20048;-65
2022/05/16 10:26:45;;;;;;;5.18;3.80;;;22.80;99.90;;;;;;5071238;28;20074;-65
2022/05/16 10:29:16;;;;;;;13.95;3.88;;;22.90;99.90;;;;;;5065491;28;20045;-65
2022/05/16 10:34:49;;;;;;;4.15;3.00;;;23.60;99.90;;;;;;5065163;28;20036;-65
2022/05/16 10:37:17;;;;;;;10.15;3.00;;;23.90;99.90;;;;;;5065508;28;20455;-65
2022/05/16 10:39:49;;;;;;;7.15;2.92;;;23.90;99.90;;;;;;5068359;28;20075;-65
2022/05/16 10:42:44;;;;;;;7.55;3.05;;;23.80;99.90;;;;;;5071272;28;20539;-65
2022/05/16 10:45:17;;;;;;;6.05;2.88;;;23.80;99.90;;;;;;5027199;28;20057;-65
2022/05/16 10:48:06;;;;;;;5.63;2.38;;;23.80;99.90;;;;;;5068387;28;20044;-66
2022/05/16 10:50:43;;;;;;;3.60;2.38;;;23.80;99.90;;;;;;5067391;28;20102;-66
2022/05/16 10:53:16;;;;;;;7.05;2.45;;;23.80;99.90;;;;;;5069765;28;20055;-66
2022/05/16 10:56:10;;;;;;;3.47;2.20;;;23.60;99.90;;;;;;5070316;28;20064;-65
2022/05/16 10:58:57;;;;;;;4.95;2.40;;;23.30;99.90;;;;;;5060559;28;20065;-66
2022/05/16 11:01:48;;;;;;;5.32;2.35;;;22.90;99.90;;;;;;5066709;28;20123;-65
2022/05/16 11:04:43;;;;;;;5.18;1.90;;;22.80;99.90;;;;;;5062625;28;20055;-66
2022/05/16 11:07:44;;;;;;;2.28;1.50;;;22.80;99.90;;;;;;5056834;28;20086;-66
2022/05/16 11:10:25;;;;;;;2.22;1.58;;;22.60;99.90;;;;;;5044361;28;20492;-65
2022/05/16 11:13:01;;;;;;;2.22;1.77;;;22.50;99.90;;;;;;5057984;28;20106;-65
2022/05/16 11:15:41;;;;;;;2.85;1.70;;;22.30;99.90;;;;;;5064671;28;20055;-65
2022/05/16 11:18:35;;;;;;;4.07;1.77;;;22.00;99.90;;;;;;5058960;28;20041;-66
2022/05/16 11:21:11;;;;;;;2.63;1.65;;;21.80;99.90;;;;;;5059648;28;20040;-65
2022/05/16 11:23:53;;;;;;;2.13;1.67;;;21.60;99.90;;;;;;5054790;28;20079;-65
2022/05/16 11:26:28;;;;;;;6.68;1.55;;;21.50;99.90;;;;;;5069692;28;20048;-66
2022/05/16 11:29:19;;;;;;;5.63;1.83;;;21.40;99.90;;;;;;5061556;28;20451;-65
2022/05/16 11:31:54;;;;;;;2.28;1.95;;;21.20;99.90;;;;;;5058902;28;20040;-65
2022/05/16 11:34:30;;;;;;;1.88;1.30;;;21.00;99.90;;;;;;5062888;28;20040;-65
2022/05/16 11:37:10;;;;;;;2.33;1.50;;;20.90;99.90;;;;;;5066506;28;20044;-65
2022/05/16 11:39:43;;;;;;;2.25;1.70;;;20.80;99.90;;;;;;5064422;28;20033;-66
2022/05/16 11:42:57;;;;;;;3.22;2.05;;;20.90;99.90;;;;;;5063847;28;20598;-65
2022/05/16 11:45:24;;;;;;;4.38;2.15;;;21.00;99.90;;;;;;5056398;28;20049;-66
2022/05/16 11:48:28;;;;;;;7.15;2.30;;;21.10;99.90;;;;;;5061616;28;20045;-65
2022/05/16 11:51:21;;;;;;;3.85;2.10;;;20.90;99.90;;;;;;5068956;28;20443;-65
2022/05/16 11:53:57;;;;;;;4.55;2.25;;;20.50;99.90;;;;;;5066850;28;20094;-65
2022/05/16 12:02:26;;;;;;;3.80;2.33;;;19.50;99.90;;;;;;5029872;28;20451;-65
2022/05/16 12:05:03;;;;;;;4.47;2.10;;;19.20;99.90;;;;;;5066553;28;20446;-64
2022/05/16 12:07:41;;;;;;;5.38;3.40;;;19.50;99.90;;;;;;5067636;28;20058;-64
2022/05/16 12:10:11;;;;;;;6.03;3.05;;;18.90;99.90;;;;;;5066356;28;20053;-64
2022/05/16 12:12:46;;;;;;;5.13;3.25;;;18.70;99.90;;;;;;5067896;28;20098;-64
2022/05/16 12:15:16;;;;;;;8.20;3.25;;;18.40;99.90;;;;;;5064705;28;20044;-63
2022/05/16 12:17:57;;;;;;;6.68;2.80;;;18.20;99.90;;;;;;5070019;28;20033;-64
2022/05/16 12:20:43;;;;;;;6.50;3.25;;;17.80;99.90;;;;;;5064754;28;20037;-64
2022/05/16 12:23:12;;;;;;;6.95;3.20;;;17.60;99.90;;;;;;5050764;28;20037;-64
2022/05/16 12:25:42;;;;;;;8.13;3.22;;;17.40;99.90;;;;;;5065228;28;20045;-63
2022/05/16 12:28:16;;;;;;;9.00;3.33;;;17.30;99.90;;;;;;5065376;28;20107;-64
2022/05/16 12:30:51;;;;;;;5.28;2.58;;;17.30;99.90;;;;;;5065537;28;20049;-63
2022/05/16 12:33:42;;;;;;;6.70;2.90;;;17.20;99.90;;;;;;5073737;28;20106;-63
2022/05/16 12:36:16;;;;;;;5.40;2.25;;;16.90;99.90;;;;;;5071504;28;20060;-63
2022/05/16 12:38:53;;;;;;;5.78;2.67;;;16.90;99.90;;;;;;5066043;28;20032;-63
2022/05/16 12:41:55;;;;;;;4.82;2.65;;;17.10;99.90;;;;;;5072076;28;20041;-63
2022/05/16 12:45:02;;;;;;;4.30;2.38;;;17.20;99.90;;;;;;5070030;28;20043;-64
2022/05/16 12:47:37;;;;;;;3.70;2.17;;;17.50;99.90;;;;;;5066819;28;20052;-64
2022/05/16 12:50:22;;;;;;;5.93;2.20;;;17.50;99.90;;;;;;5069417;28;20049;-63
2022/05/16 12:53:27;;;;;;;4.75;1.98;;;17.50;99.90;;;;;;5082893;22;20110;-62
2022/05/16 12:56:23;;;;;;;3.05;1.77;;;17.10;99.90;;;;;;5052178;28;20045;-63
2022/05/16 12:59:20;;;;;;;5.57;2.80;;;17.60;99.90;;;;;;5053346;28;20106;-62
2022/05/16 13:02:06;;;;;;;2.45;2.00;;;18.50;99.90;;;;;;5053469;28;20455;-63
2022/05/16 13:05:11;;;;;;;4.30;2.40;;;19.10;99.90;;;;;;5044532;28;20397;-63
2022/05/16 13:07:46;;;;;;;3.90;2.35;;;19.60;99.90;;;;;;5052895;28;20037;-62
2022/05/16 13:10:23;;;;;;;3.83;2.47;;;20.20;99.90;;;;;;5048030;28;20092;-63
2022/05/16 13:13:12;;;;;;;3.72;2.45;;;20.80;99.90;;;;;;5056564;22;20111;-63
2022/05/16 13:15:54;;;;;;;4.63;2.17;;;21.00;99.90;;;;;;5049871;28;20033;-63
2022/05/16 13:18:28;;;;;;;6.75;2.35;;;20.40;99.90;;;;;;5049612;28;20072;-63
2022/05/16 13:20:59;;;;;;;5.43;2.72;;;19.50;99.90;;;;;;5042661;28;20060;-63
2022/05/16 13:23:26;;;;;;;5.68;2.53;;;19.20;99.90;;;;;;5049811;28;20099;-63
2022/05/16 13:31:34;;;;;;;4.45;2.63;;;19.60;99.90;;;;;;5047500;28;20121;-63
2022/05/16 13:34:02;;;;;;;3.38;2.38;;;19.80;99.90;;;;;;5046872;28;20041;-63
2022/05/16 13:36:29;;;;;;;3.67;2.45;;;19.90;99.90;;;;;;5047888;28;20095;-63
2022/05/16 13:39:11;;;;;;;3.38;2.40;;;20.10;99.90;;;;;;5052820;28;20053;-63
2022/05/16 13:41:38;;;;;;;5.35;3.03;;;20.40;99.90;;;;;;5046901;28;20272;-62
2022/05/16 13:44:10;;;;;;;7.03;2.60;;;21.20;99.90;;;;;;5050567;28;20092;-63
2022/05/16 13:46:36;;;;;;;5.00;2.75;;;21.90;99.90;;;;;;5047439;28;20091;-63
2022/05/16 13:49:07;;;;;;;4.57;2.38;;;22.40;99.90;;;;;;5052964;28;20543;-64